sensor_id;sensor_type;location;lat;lon;timestamp;pressure;altitude;pressure_sealevel;temperature;humidity
9474;BME280;8865;47.636;7.692;2023-04-06T00:01:40;98523.06;;;2.37;100.00
9474;BME280;8865;47.636;7.692;2023-04-06T00:04:06;98518.03;;;2.34;100.00
9474;BME280;8865;47.636;7.692;2023-04-06T00:06:33;98512.47;;;2.24;100.00
9474;BME280;8865;47.636;7.692;2023-04-06T00:09:00;98515.75;;;2.27;100.00
9474;BME280;8865;47.636;7.692;2023-04-06T00:11:26;98524.63;;;2.22;100.00
9474;BME280;8865;47.636;7.692;2023-04-06T00:13:53;98518.78;;;2.18;100.00
9474;BME280;8865;47.636;7.692;2023-04-06T00:16:19;98518.06;;;2.14;100.00
9474;BME280;8865;47.636;7.692;2023-04-06T00:18:45;98521.69;;;2.10;100.00
9474;BME280;8865;47.636;7.692;2023-04-06T00:21:13;98516.69;;;2.07;100.00
9474;BME280;8865;47.636;7.692;2023-04-06T00:23:41;98519.41;;;2.04;100.00
9474;BME280;8865;47.636;7.692;2023-04-06T00:26:10;98514.44;;;2.00;100.00
9474;BME280;8865;47.636;7.692;2023-04-06T00:28:37;98508.69;;;1.94;100.00
9474;BME280;8865;47.636;7.692;2023-04-06T00:31:03;98511.53;;;1.88;100.00
9474;BME280;8865;47.636;7.692;2023-04-06T00:33:29;98514.19;;;1.87;100.00
9474;BME280;8865;47.636;7.692;2023-04-06T00:35:55;98508.13;;;1.88;100.00
9474;BME280;8865;47.636;7.692;2023-04-06T00:38:21;98505.56;;;1.88;100.00
9474;BME280;8865;47.636;7.692;2023-04-06T00:40:47;98502.19;;;1.86;100.00
9474;BME280;8865;47.636;7.692;2023-04-06T00:43:14;98505.06;;;1.79;100.00
9474;BME280;8865;47.636;7.692;2023-04-06T00:45:41;98499.88;;;1.79;100.00
9474;BME280;8865;47.636;7.692;2023-04-06T00:48:08;98496.41;;;1.81;100.00
9474;BME280;8865;47.636;7.692;2023-04-06T00:50:35;98500.88;;;1.77;100.00
9474;BME280;8865;47.636;7.692;2023-04-06T00:53:01;98493.72;;;1.65;100.00
9474;BME280;8865;47.636;7.692;2023-04-06T00:55:30;98494.81;;;1.59;100.00
9474;BME280;8865;47.636;7.692;2023-04-06T00:57:58;98499.00;;;1.62;100.00
9474;BME280;8865;47.636;7.692;2023-04-06T01:00:25;98497.25;;;1.62;100.00
9474;BME280;8865;47.636;7.692;2023-04-06T01:02:52;98491.19;;;1.63;100.00
9474;BME280;8865;47.636;7.692;2023-04-06T01:05:18;98495.44;;;1.64;100.00
9474;BME280;8865;47.636;7.692;2023-04-06T01:07:44;98493.91;;;1.60;100.00
9474;BME280;8865;47.636;7.692;2023-04-06T01:10:10;98488.69;;;1.62;100.00
9474;BME280;8865;47.636;7.692;2023-04-06T01:12:36;98485.31;;;1.59;100.00
9474;BME280;8865;47.636;7.692;2023-04-06T01:15:06;98491.63;;;1.54;100.00
9474;BME280;8865;47.636;7.692;2023-04-06T01:17:33;98489.19;;;1.51;100.00
9474;BME280;8865;47.636;7.692;2023-04-06T01:19:58;98485.94;;;1.46;100.00
9474;BME280;8865;47.636;7.692;2023-04-06T01:22:24;98484.78;;;1.34;100.00
9474;BME280;8865;47.636;7.692;2023-04-06T01:24:50;98486.50;;;1.33;100.00
9474;BME280;8865;47.636;7.692;2023-04-06T01:27:17;98478.97;;;1.29;100.00
9474;BME280;8865;47.636;7.692;2023-04-06T01:29:42;98478.28;;;1.25;100.00
9474;BME280;8865;47.636;7.692;2023-04-06T01:32:09;98482.25;;;1.32;100.00
9474;BME280;8865;47.636;7.692;2023-04-06T01:34:35;98479.03;;;1.27;100.00
9474;BME280;8865;47.636;7.692;2023-04-06T01:37:01;98472.97;;;1.28;100.00
9474;BME280;8865;47.636;7.692;2023-04-06T01:39:29;98478.00;;;1.31;100.00
9474;BME280;8865;47.636;7.692;2023-04-06T01:41:55;98471.34;;;1.25;100.00
9474;BME280;8865;47.636;7.692;2023-04-06T01:44:21;98472.22;;;1.26;100.00
9474;BME280;8865;47.636;7.692;2023-04-06T01:46:47;98473.19;;;1.23;100.00
9474;BME280;8865;47.636;7.692;2023-04-06T01:49:12;98471.56;;;1.21;100.00
9474;BME280;8865;47.636;7.692;2023-04-06T01:51:38;98474.28;;;1.18;100.00
9474;BME280;8865;47.636;7.692;2023-04-06T01:54:05;98471.78;;;1.16;100.00
9474;BME280;8865;47.636;7.692;2023-04-06T01:56:31;98470.06;;;1.17;100.00
9474;BME280;8865;47.636;7.692;2023-04-06T01:58:57;98471.69;;;1.18;100.00
9474;BME280;8865;47.636;7.692;2023-04-06T02:01:23;98471.56;;;1.21;100.00
9474;BME280;8865;47.636;7.692;2023-04-06T02:03:49;98467.25;;;1.21;100.00
9474;BME280;8865;47.636;7.692;2023-04-06T02:06:15;98469.84;;;1.21;100.00
9474;BME280;8865;47.636;7.692;2023-04-06T02:08:41;98469.97;;;1.18;100.00
9474;BME280;8865;47.636;7.692;2023-04-06T02:11:07;98464.09;;;1.15;100.00
9474;BME280;8865;47.636;7.692;2023-04-06T02:13:33;98460.75;;;1.13;100.00
9474;BME280;8865;47.636;7.692;2023-04-06T02:15:59;98463.41;;;1.11;100.00
9474;BME280;8865;47.636;7.692;2023-04-06T02:18:25;98470.25;;;1.12;100.00
9474;BME280;8865;47.636;7.692;2023-04-06T02:20:51;98465.31;;;1.08;100.00
9474;BME280;8865;47.636;7.692;2023-04-06T02:23:17;98461.03;;;1.06;100.00
9474;BME280;8865;47.636;7.692;2023-04-06T02:25:43;98462.81;;;1.04;100.00
9474;BME280;8865;47.636;7.692;2023-04-06T02:28:09;98467.09;;;1.05;100.00
9474;BME280;8865;47.636;7.692;2023-04-06T02:30:36;98457.66;;;1.04;100.00
9474;BME280;8865;47.636;7.692;2023-04-06T02:33:02;98462.19;;;0.99;100.00
9474;BME280;8865;47.636;7.692;2023-04-06T02:35:29;98457.38;;;0.92;100.00
9474;BME280;8865;47.636;7.692;2023-04-06T02:37:55;98461.56;;;0.94;100.00
9474;BME280;8865;47.636;7.692;2023-04-06T02:40:22;98461.72;;;0.91;100.00
9474;BME280;8865;47.636;7.692;2023-04-06T02:42:48;98463.56;;;0.87;100.00
9474;BME280;8865;47.636;7.692;2023-04-06T02:45:14;98461.91;;;0.86;100.00
9474;BME280;8865;47.636;7.692;2023-04-06T02:47:40;98453.44;;;0.83;100.00
9474;BME280;8865;47.636;7.692;2023-04-06T02:50:06;98458.53;;;0.84;100.00
9474;BME280;8865;47.636;7.692;2023-04-06T02:52:32;98462.09;;;0.82;100.00
9474;BME280;8865;47.636;7.692;2023-04-06T02:54:58;98462.31;;;0.77;100.00
9474;BME280;8865;47.636;7.692;2023-04-06T02:57:24;98457.09;;;0.79;100.00
9474;BME280;8865;47.636;7.692;2023-04-06T02:59:50;98459.00;;;0.74;100.00
9474;BME280;8865;47.636;7.692;2023-04-06T03:02:16;98452.25;;;0.71;100.00
9474;BME280;8865;47.636;7.692;2023-04-06T03:04:42;98450.78;;;0.65;100.00
9474;BME280;8865;47.636;7.692;2023-04-06T03:07:08;98451.72;;;0.63;100.00
9474;BME280;8865;47.636;7.692;2023-04-06T03:09:37;98456.00;;;0.64;100.00
9474;BME280;8865;47.636;7.692;2023-04-06T03:12:03;98449.09;;;0.64;100.00
9474;BME280;8865;47.636;7.692;2023-04-06T03:14:29;98451.72;;;0.63;100.00
9474;BME280;8865;47.636;7.692;2023-04-06T03:16:55;98443.94;;;0.64;100.00
9474;BME280;8865;47.636;7.692;2023-04-06T03:19:21;98449.88;;;0.66;100.00
9474;BME280;8865;47.636;7.692;2023-04-06T03:21:47;98445.69;;;0.64;100.00
9474;BME280;8865;47.636;7.692;2023-04-06T03:24:13;98455.22;;;0.62;100.00
9474;BME280;8865;47.636;7.692;2023-04-06T03:26:39;98447.28;;;0.66;100.00
9474;BME280;8865;47.636;7.692;2023-04-06T03:29:05;98457.81;;;0.62;100.00
9474;BME280;8865;47.636;7.692;2023-04-06T03:31:31;98451.34;;;0.51;100.00
9474;BME280;8865;47.636;7.692;2023-04-06T03:33:57;98448.59;;;0.56;100.00
9474;BME280;8865;47.636;7.692;2023-04-06T03:36:24;98451.28;;;0.53;100.00
9474;BME280;8865;47.636;7.692;2023-04-06T03:38:51;98457.34;;;0.52;100.00
9474;BME280;8865;47.636;7.692;2023-04-06T03:41:19;98453.16;;;0.49;100.00
9474;BME280;8865;47.636;7.692;2023-04-06T03:43:45;98455.22;;;0.41;100.00
9474;BME280;8865;47.636;7.692;2023-04-06T03:46:11;98456.06;;;0.42;100.00
9474;BME280;8865;47.636;7.692;2023-04-06T03:48:37;98457.03;;;0.39;100.00
9474;BME280;8865;47.636;7.692;2023-04-06T03:51:03;98465.69;;;0.37;100.00
9474;BME280;8865;47.636;7.692;2023-04-06T03:53:30;98460.41;;;0.40;100.00
9474;BME280;8865;47.636;7.692;2023-04-06T03:55:56;98461.34;;;0.39;100.00
9474;BME280;8865;47.636;7.692;2023-04-06T03:58:22;98468.16;;;0.40;100.00
9474;BME280;8865;47.636;7.692;2023-04-06T04:00:48;98470.66;;;0.41;100.00
9474;BME280;8865;47.636;7.692;2023-04-06T04:03:14;98465.00;;;0.33;100.00
9474;BME280;8865;47.636;7.692;2023-04-06T04:05:40;98473.63;;;0.32;100.00
9474;BME280;8865;47.636;7.692;2023-04-06T04:08:06;98476.06;;;0.35;100.00
9474;BME280;8865;47.636;7.692;2023-04-06T04:10:32;98474.53;;;0.31;100.00
9474;BME280;8865;47.636;7.692;2023-04-06T04:12:58;98475.63;;;0.25;100.00
9474;BME280;8865;47.636;7.692;2023-04-06T04:15:24;98478.84;;;0.30;100.00
9474;BME280;8865;47.636;7.692;2023-04-06T04:17:50;98486.00;;;0.24;100.00
9474;BME280;8865;47.636;7.692;2023-04-06T04:20:16;98485.22;;;0.22;100.00
9474;BME280;8865;47.636;7.692;2023-04-06T04:22:42;98480.91;;;0.22;100.00
9474;BME280;8865;47.636;7.692;2023-04-06T04:25:09;98487.84;;;0.20;100.00
9474;BME280;8865;47.636;7.692;2023-04-06T04:27:35;98485.47;;;0.15;100.00
9474;BME280;8865;47.636;7.692;2023-04-06T04:30:01;98490.75;;;0.12;100.00
9474;BME280;8865;47.636;7.692;2023-04-06T04:32:28;98495.78;;;0.15;100.00
9474;BME280;8865;47.636;7.692;2023-04-06T04:34:54;98499.19;;;0.16;100.00
9474;BME280;8865;47.636;7.692;2023-04-06T04:37:20;98495.84;;;0.14;100.00
9474;BME280;8865;47.636;7.692;2023-04-06T04:39:46;98499.28;;;0.13;100.00
9474;BME280;8865;47.636;7.692;2023-04-06T04:42:13;98501.81;;;0.14;100.00
9474;BME280;8865;47.636;7.692;2023-04-06T04:44:39;98499.19;;;0.16;100.00
9474;BME280;8865;47.636;7.692;2023-04-06T04:47:05;98511.94;;;0.19;100.00
9474;BME280;8865;47.636;7.692;2023-04-06T04:49:31;98503.50;;;0.15;100.00
9474;BME280;8865;47.636;7.692;2023-04-06T04:51:57;98508.53;;;0.19;100.00
9474;BME280;8865;47.636;7.692;2023-04-06T04:54:23;98510.44;;;0.13;100.00
9474;BME280;8865;47.636;7.692;2023-04-06T04:56:49;98510.44;;;0.13;100.00
9474;BME280;8865;47.636;7.692;2023-04-06T04:59:16;98508.66;;;0.15;100.00
9474;BME280;8865;47.636;7.692;2023-04-06T05:01:42;98506.06;;;0.15;100.00
9474;BME280;8865;47.636;7.692;2023-04-06T05:04:08;98513.84;;;0.14;100.00
9474;BME280;8865;47.636;7.692;2023-04-06T05:06:34;98513.81;;;0.15;100.00
9474;BME280;8865;47.636;7.692;2023-04-06T05:09:00;98513.84;;;0.14;100.00
9474;BME280;8865;47.636;7.692;2023-04-06T05:11:26;98515.22;;;0.23;100.00
9474;BME280;8865;47.636;7.692;2023-04-06T05:13:52;98512.56;;;0.24;100.00
9474;BME280;8865;47.636;7.692;2023-04-06T05:16:18;98524.31;;;0.31;100.00
9474;BME280;8865;47.636;7.692;2023-04-06T05:18:44;98518.28;;;0.32;100.00
9474;BME280;8865;47.636;7.692;2023-04-06T05:21:11;98523.38;;;0.34;100.00
9474;BME280;8865;47.636;7.692;2023-04-06T05:23:37;98513.94;;;0.33;100.00
9474;BME280;8865;47.636;7.692;2023-04-06T05:26:03;98529.22;;;0.38;100.00
9474;BME280;8865;47.636;7.692;2023-04-06T05:28:30;98530.00;;;0.40;100.00
9474;BME280;8865;47.636;7.692;2023-04-06T05:30:56;98531.69;;;0.41;100.00
9474;BME280;8865;47.636;7.692;2023-04-06T05:33:24;98526.59;;;0.39;100.00
9474;BME280;8865;47.636;7.692;2023-04-06T05:35:50;98540.97;;;0.45;100.00
9474;BME280;8865;47.636;7.692;2023-04-06T05:38:16;98532.25;;;0.47;100.00
9474;BME280;8865;47.636;7.692;2023-04-06T05:40:42;98536.41;;;0.51;100.00
9474;BME280;8865;47.636;7.692;2023-04-06T05:43:08;98538.91;;;0.53;100.00
9474;BME280;8865;47.636;7.692;2023-04-06T05:45:34;98532.75;;;0.57;100.00
9474;BME280;8865;47.636;7.692;2023-04-06T05:48:02;98534.41;;;0.58;100.00
9474;BME280;8865;47.636;7.692;2023-04-06T05:50:28;98537.53;;;0.66;100.00
9474;BME280;8865;47.636;7.692;2023-04-06T05:52:54;98537.25;;;0.73;100.00
9474;BME280;8865;47.636;7.692;2023-04-06T05:55:20;98537.91;;;0.78;100.00
9474;BME280;8865;47.636;7.692;2023-04-06T05:57:46;98540.22;;;0.84;100.00
9474;BME280;8865;47.636;7.692;2023-04-06T06:00:13;98538.16;;;0.92;100.00
9474;BME280;8865;47.636;7.692;2023-04-06T06:02:39;98543.91;;;0.99;100.00
9474;BME280;8865;47.636;7.692;2023-04-06T06:05:05;98537.53;;;1.08;100.00
9474;BME280;8865;47.636;7.692;2023-04-06T06:07:31;98537.31;;;1.12;100.00
9474;BME280;8865;47.636;7.692;2023-04-06T06:09:58;98534.81;;;1.11;100.00
9474;BME280;8865;47.636;7.692;2023-04-06T06:12:24;98534.28;;;1.23;100.00
9474;BME280;8865;47.636;7.692;2023-04-06T06:14:50;98540.81;;;1.30;100.00
9474;BME280;8865;47.636;7.692;2023-04-06T06:17:16;98545.59;;;1.39;100.00
9474;BME280;8865;47.636;7.692;2023-04-06T06:19:42;98547.69;;;1.50;100.00
9474;BME280;8865;47.636;7.692;2023-04-06T06:22:08;98542.13;;;1.59;100.00
9474;BME280;8865;47.636;7.692;2023-04-06T06:24:34;98550.50;;;1.65;100.00
9474;BME280;8865;47.636;7.692;2023-04-06T06:27:00;98544.13;;;1.72;100.00
9474;BME280;8865;47.636;7.692;2023-04-06T06:29:26;98546.03;;;1.87;100.00
9474;BME280;8865;47.636;7.692;2023-04-06T06:31:52;98543.09;;;1.95;100.00
9474;BME280;8865;47.636;7.692;2023-04-06T06:34:18;98543.38;;;2.08;100.00
9474;BME280;8865;47.636;7.692;2023-04-06T06:36:44;98540.56;;;2.12;100.00
9474;BME280;8865;47.636;7.692;2023-04-06T06:39:10;98539.22;;;2.23;100.00
9474;BME280;8865;47.636;7.692;2023-04-06T06:41:36;98537.84;;;2.33;100.00
9474;BME280;8865;47.636;7.692;2023-04-06T06:44:02;98538.88;;;2.48;100.00
9474;BME280;8865;47.636;7.692;2023-04-06T06:46:28;98540.94;;;2.59;100.00
9474;BME280;8865;47.636;7.692;2023-04-06T06:48:54;98531.03;;;2.67;100.00
9474;BME280;8865;47.636;7.692;2023-04-06T06:51:20;98541.78;;;2.77;100.00
9474;BME280;8865;47.636;7.692;2023-04-06T06:53:47;98537.53;;;2.76;100.00
9474;BME280;8865;47.636;7.692;2023-04-06T06:56:13;98544.50;;;2.91;100.00
9474;BME280;8865;47.636;7.692;2023-04-06T06:58:39;98541.97;;;3.07;100.00
9474;BME280;8865;47.636;7.692;2023-04-06T07:01:06;98545.69;;;3.19;100.00
9474;BME280;8865;47.636;7.692;2023-04-06T07:03:32;98541.66;;;3.31;100.00
9474;BME280;8865;47.636;7.692;2023-04-06T07:05:58;98540.34;;;3.39;100.00
9474;BME280;8865;47.636;7.692;2023-04-06T07:08:24;98544.03;;;3.51;100.00
9474;BME280;8865;47.636;7.692;2023-04-06T07:10:51;98543.28;;;3.65;100.00
9474;BME280;8865;47.636;7.692;2023-04-06T07:13:23;98541.47;;;3.83;100.00
9474;BME280;8865;47.636;7.692;2023-04-06T07:15:50;98538.38;;;3.92;100.00
9474;BME280;8865;47.636;7.692;2023-04-06T07:46:42;98530.66;;;5.57;100.00
9474;BME280;8865;47.636;7.692;2023-04-06T07:49:12;98525.91;;;5.78;100.00
9474;BME280;8865;47.636;7.692;2023-04-06T07:51:40;98531.06;;;5.93;100.00
9474;BME280;8865;47.636;7.692;2023-04-06T07:54:27;98526.41;;;6.12;100.00
9474;BME280;8865;47.636;7.692;2023-04-06T07:56:54;98527.94;;;6.29;100.00
9474;BME280;8865;47.636;7.692;2023-04-06T07:59:26;98531.66;;;6.52;100.00
9474;BME280;8865;47.636;7.692;2023-04-06T08:01:53;98534.13;;;6.68;98.50
9474;BME280;8865;47.636;7.692;2023-04-06T08:04:20;98522.38;;;6.88;98.20
9474;BME280;8865;47.636;7.692;2023-04-06T08:06:46;98524.38;;;6.97;98.43
9474;BME280;8865;47.636;7.692;2023-04-06T08:09:12;98523.75;;;7.20;95.56
9474;BME280;8865;47.636;7.692;2023-04-06T08:11:38;98517.81;;;7.43;92.98
9474;BME280;8865;47.636;7.692;2023-04-06T08:14:04;98517.88;;;7.55;88.97
9474;BME280;8865;47.636;7.692;2023-04-06T08:16:31;98514.50;;;7.78;86.92
9474;BME280;8865;47.636;7.692;2023-04-06T08:18:57;98509.91;;;8.06;88.24
9474;BME280;8865;47.636;7.692;2023-04-06T08:21:23;98508.78;;;8.34;78.47
9474;BME280;8865;47.636;7.692;2023-04-06T08:23:49;98501.56;;;8.62;82.15
9474;BME280;8865;47.636;7.692;2023-04-06T08:26:16;98509.00;;;8.91;77.85
9474;BME280;8865;47.636;7.692;2023-04-06T08:28:42;98505.56;;;9.24;61.69
9474;BME280;8865;47.636;7.692;2023-04-06T08:31:08;98508.47;;;9.55;63.02
9474;BME280;8865;47.636;7.692;2023-04-06T08:33:34;98516.75;;;9.83;60.93
9474;BME280;8865;47.636;7.692;2023-04-06T08:36:09;98505.53;;;10.04;56.33
9474;BME280;8865;47.636;7.692;2023-04-06T08:38:36;98501.88;;;10.27;54.81
9474;BME280;8865;47.636;7.692;2023-04-06T08:41:12;98507.75;;;10.52;50.70
9474;BME280;8865;47.636;7.692;2023-04-06T16:00:10;98309.16;;;15.31;33.82
9474;BME280;8865;47.636;7.692;2023-04-06T16:02:37;98312.66;;;15.31;34.17
9474;BME280;8865;47.636;7.692;2023-04-06T16:05:03;98316.25;;;15.22;33.68
9474;BME280;8865;47.636;7.692;2023-04-06T16:07:30;98313.16;;;15.43;33.91
9474;BME280;8865;47.636;7.692;2023-04-06T16:09:57;98314.31;;;15.41;33.99
9474;BME280;8865;47.636;7.692;2023-04-06T16:12:23;98318.38;;;15.18;33.55
9474;BME280;8865;47.636;7.692;2023-04-06T16:14:50;98317.06;;;15.23;34.15
9474;BME280;8865;47.636;7.692;2023-04-06T16:17:16;98325.47;;;15.10;34.41
9474;BME280;8865;47.636;7.692;2023-04-06T16:19:42;98316.03;;;15.07;34.24
9474;BME280;8865;47.636;7.692;2023-04-06T16:22:09;98323.78;;;15.00;36.02
9474;BME280;8865;47.636;7.692;2023-04-06T16:24:36;98320.34;;;14.74;33.91
9474;BME280;8865;47.636;7.692;2023-04-06T16:27:02;98319.53;;;14.73;32.71
9474;BME280;8865;47.636;7.692;2023-04-06T16:29:28;98319.56;;;14.55;33.62
9474;BME280;8865;47.636;7.692;2023-04-06T16:31:57;98319.53;;;14.47;34.53
9474;BME280;8865;47.636;7.692;2023-04-06T16:34:23;98315.19;;;14.38;34.36
9474;BME280;8865;47.636;7.692;2023-04-06T16:36:49;98319.41;;;14.31;34.52
9474;BME280;8865;47.636;7.692;2023-04-06T16:39:16;98312.13;;;14.24;33.77
9474;BME280;8865;47.636;7.692;2023-04-06T16:41:42;98309.75;;;14.13;34.65
9474;BME280;8865;47.636;7.692;2023-04-06T16:44:08;98313.81;;;13.89;34.48
9474;BME280;8865;47.636;7.692;2023-04-06T16:46:35;98308.88;;;13.68;35.39
9474;BME280;8865;47.636;7.692;2023-04-06T16:49:03;98307.84;;;13.79;36.24
9474;BME280;8865;47.636;7.692;2023-04-06T16:51:31;98305.63;;;13.92;36.00
9474;BME280;8865;47.636;7.692;2023-04-06T16:53:58;98308.66;;;13.98;36.67
9474;BME280;8865;47.636;7.692;2023-04-06T16:56:24;98308.03;;;14.04;35.29
9474;BME280;8865;47.636;7.692;2023-04-06T16:58:50;98303.13;;;14.09;35.98
9474;BME280;8865;47.636;7.692;2023-04-06T17:01:21;98296.03;;;14.09;37.95
9474;BME280;8865;47.636;7.692;2023-04-06T17:03:48;98308.22;;;14.10;39.36
9474;BME280;8865;47.636;7.692;2023-04-06T17:06:14;98312.16;;;14.06;38.94
9474;BME280;8865;47.636;7.692;2023-04-06T17:08:41;98307.50;;;14.00;36.48
9474;BME280;8865;47.636;7.692;2023-04-06T17:11:08;98309.91;;;13.93;39.21
9474;BME280;8865;47.636;7.692;2023-04-06T17:13:34;98309.88;;;13.85;39.65
9474;BME280;8865;47.636;7.692;2023-04-06T17:16:01;98305.34;;;13.78;39.20
9474;BME280;8865;47.636;7.692;2023-04-06T17:18:27;98306.78;;;13.72;37.84
9474;BME280;8865;47.636;7.692;2023-04-06T17:20:57;98307.38;;;13.66;36.59
9474;BME280;8865;47.636;7.692;2023-04-06T17:23:24;98315.56;;;13.63;39.84
9474;BME280;8865;47.636;7.692;2023-04-06T17:25:51;98314.50;;;13.55;38.03
9474;BME280;8865;47.636;7.692;2023-04-06T17:28:17;98314.28;;;13.49;38.20
9474;BME280;8865;47.636;7.692;2023-04-06T17:30:43;98311.13;;;13.45;41.42
9474;BME280;8865;47.636;7.692;2023-04-06T17:33:09;98316.59;;;13.34;39.81
9474;BME280;8865;47.636;7.692;2023-04-06T17:35:35;98303.88;;;13.29;41.44
9474;BME280;8865;47.636;7.692;2023-04-06T17:38:01;98311.38;;;13.24;39.38
9474;BME280;8865;47.636;7.692;2023-04-06T17:40:27;98306.41;;;13.21;44.21
9474;BME280;8865;47.636;7.692;2023-04-06T17:42:53;98310.75;;;13.12;41.58
9474;BME280;8865;47.636;7.692;2023-04-06T17:45:19;98304.97;;;13.09;41.47
9474;BME280;8865;47.636;7.692;2023-04-06T17:47:46;98309.38;;;13.08;42.97
9474;BME280;8865;47.636;7.692;2023-04-06T17:50:11;98304.25;;;13.07;45.82
9474;BME280;8865;47.636;7.692;2023-04-06T17:52:37;98306.22;;;13.04;47.49
9474;BME280;8865;47.636;7.692;2023-04-06T17:55:04;98317.19;;;13.00;45.63
9474;BME280;8865;47.636;7.692;2023-04-06T17:57:30;98313.19;;;12.96;47.78
9474;BME280;8865;47.636;7.692;2023-04-06T17:59:56;98304.91;;;12.91;50.42
9474;BME280;8865;47.636;7.692;2023-04-06T18:02:22;98312.41;;;12.85;51.28
9474;BME280;8865;47.636;7.692;2023-04-06T18:04:51;98308.56;;;12.80;62.17
9474;BME280;8865;47.636;7.692;2023-04-06T18:07:18;98317.84;;;12.74;59.44
9474;BME280;8865;47.636;7.692;2023-04-06T18:09:44;98324.66;;;12.67;59.88
9474;BME280;8865;47.636;7.692;2023-04-06T18:12:10;98323.44;;;12.61;57.94
9474;BME280;8865;47.636;7.692;2023-04-06T18:14:38;98325.50;;;12.58;62.83
9474;BME280;8865;47.636;7.692;2023-04-06T18:17:04;98333.94;;;12.51;59.62
9474;BME280;8865;47.636;7.692;2023-04-06T18:19:30;98328.31;;;12.46;61.06
9474;BME280;8865;47.636;7.692;2023-04-06T18:21:57;98340.06;;;12.42;62.72
9474;BME280;8865;47.636;7.692;2023-04-06T18:24:23;98338.00;;;12.36;56.37
9474;BME280;8865;47.636;7.692;2023-04-06T18:26:49;98344.25;;;12.35;59.40
9474;BME280;8865;47.636;7.692;2023-04-06T18:29:16;98341.47;;;12.27;63.12
9474;BME280;8865;47.636;7.692;2023-04-06T18:31:42;98347.72;;;12.26;67.07
9474;BME280;8865;47.636;7.692;2023-04-06T18:34:09;98348.28;;;12.20;64.61
9474;BME280;8865;47.636;7.692;2023-04-06T18:36:36;98347.56;;;12.18;64.50
9474;BME280;8865;47.636;7.692;2023-04-06T18:39:01;98354.09;;;12.13;63.14
9474;BME280;8865;47.636;7.692;2023-04-06T18:41:28;98362.09;;;12.02;68.50
9474;BME280;8865;47.636;7.692;2023-04-06T18:43:54;98365.00;;;11.99;71.89
9474;BME280;8865;47.636;7.692;2023-04-06T18:46:20;98362.09;;;11.92;70.89
9474;BME280;8865;47.636;7.692;2023-04-06T18:48:47;98357.91;;;11.90;69.81
9474;BME280;8865;47.636;7.692;2023-04-06T18:51:13;98370.34;;;11.88;72.85
9474;BME280;8865;47.636;7.692;2023-04-06T18:53:40;98365.38;;;11.85;67.53
9474;BME280;8865;47.636;7.692;2023-04-06T18:56:17;98375.88;;;11.75;65.21
9474;BME280;8865;47.636;7.692;2023-04-06T18:58:44;98380.28;;;11.74;67.19
9474;BME280;8865;47.636;7.692;2023-04-06T19:01:28;98385.13;;;11.59;62.38
9474;BME280;8865;47.636;7.692;2023-04-06T19:03:55;98395.13;;;11.35;59.41
9474;BME280;8865;47.636;7.692;2023-04-06T19:06:22;98397.31;;;11.30;60.41
9474;BME280;8865;47.636;7.692;2023-04-06T19:08:48;98407.00;;;11.39;58.60
9474;BME280;8865;47.636;7.692;2023-04-06T19:11:15;98409.22;;;11.43;60.46
9474;BME280;8865;47.636;7.692;2023-04-06T19:13:41;98404.56;;;11.57;64.61
9474;BME280;8865;47.636;7.692;2023-04-06T19:16:15;98406.47;;;11.45;62.78
9474;BME280;8865;47.636;7.692;2023-04-06T19:18:41;98400.94;;;11.48;64.75
9474;BME280;8865;47.636;7.692;2023-04-06T19:21:22;98402.91;;;11.46;64.63
9474;BME280;8865;47.636;7.692;2023-04-06T19:23:49;98403.84;;;11.45;64.22
9474;BME280;8865;47.636;7.692;2023-04-06T19:26:17;98401.63;;;11.50;63.26
9474;BME280;8865;47.636;7.692;2023-04-06T19:28:44;98404.66;;;11.46;63.82
9474;BME280;8865;47.636;7.692;2023-04-06T19:31:12;98399.88;;;11.51;66.34
9474;BME280;8865;47.636;7.692;2023-04-06T19:33:39;98406.19;;;11.48;67.78
9474;BME280;8865;47.636;7.692;2023-04-06T19:36:06;98408.69;;;11.40;67.36
9474;BME280;8865;47.636;7.692;2023-04-06T19:38:33;98412.66;;;11.44;68.81
9474;BME280;8865;47.636;7.692;2023-04-06T19:41:00;98411.72;;;11.45;69.84
9474;BME280;8865;47.636;7.692;2023-04-06T19:43:27;98411.72;;;11.45;75.89
9474;BME280;8865;47.636;7.692;2023-04-06T19:45:53;98408.50;;;11.32;72.10
9474;BME280;8865;47.636;7.692;2023-04-06T19:48:19;98408.09;;;11.36;71.36
9474;BME280;8865;47.636;7.692;2023-04-06T19:50:45;98407.00;;;11.39;68.90
9474;BME280;8865;47.636;7.692;2023-04-06T19:53:12;98412.53;;;11.46;73.74
9474;BME280;8865;47.636;7.692;2023-04-06T19:55:38;98408.13;;;11.46;73.20
9474;BME280;8865;47.636;7.692;2023-04-06T19:58:04;98407.16;;;11.47;76.16
9474;BME280;8865;47.636;7.692;2023-04-06T20:00:31;98413.66;;;11.43;76.06
9474;BME280;8865;47.636;7.692;2023-04-06T20:02:57;98410.91;;;11.44;84.68
9474;BME280;8865;47.636;7.692;2023-04-06T20:05:23;98407.97;;;11.38;77.59
9474;BME280;8865;47.636;7.692;2023-04-06T20:07:49;98410.72;;;11.36;82.46
9474;BME280;8865;47.636;7.692;2023-04-06T20:10:15;98412.78;;;11.33;73.79
9474;BME280;8865;47.636;7.692;2023-04-06T20:12:43;98411.13;;;11.32;71.76
9474;BME280;8865;47.636;7.692;2023-04-06T20:15:10;98407.28;;;11.36;73.60
9474;BME280;8865;47.636;7.692;2023-04-06T20:17:37;98402.56;;;11.39;77.79
9474;BME280;8865;47.636;7.692;2023-04-06T20:20:04;98404.25;;;11.40;86.64
9474;BME280;8865;47.636;7.692;2023-04-06T20:22:31;98406.06;;;11.40;91.75
9474;BME280;8865;47.636;7.692;2023-04-06T20:24:57;98401.75;;;11.39;90.84
9474;BME280;8865;47.636;7.692;2023-04-06T20:27:23;98400.34;;;11.35;84.39
9474;BME280;8865;47.636;7.692;2023-04-06T20:29:49;98392.75;;;11.32;86.05
9474;BME280;8865;47.636;7.692;2023-04-06T20:32:15;98381.84;;;11.26;81.78
9474;BME280;8865;47.636;7.692;2023-04-06T20:34:46;98379.09;;;11.28;85.78
9474;BME280;8865;47.636;7.692;2023-04-06T20:37:12;98378.50;;;11.15;82.38
9474;BME280;8865;47.636;7.692;2023-04-06T20:39:38;98385.13;;;11.09;79.35
9474;BME280;8865;47.636;7.692;2023-04-06T20:42:04;98387.59;;;11.11;77.92
9474;BME280;8865;47.636;7.692;2023-04-06T20:44:31;98383.88;;;11.13;77.19
9474;BME280;8865;47.636;7.692;2023-04-06T20:46:58;98376.59;;;11.17;83.93
9474;BME280;8865;47.636;7.692;2023-04-06T20:49:24;98378.22;;;11.18;85.97
9474;BME280;8865;47.636;7.692;2023-04-06T20:51:50;98383.44;;;11.08;72.62
9474;BME280;8865;47.636;7.692;2023-04-06T20:54:17;98385.06;;;10.99;71.58
9474;BME280;8865;47.636;7.692;2023-04-06T20:56:43;98378.34;;;11.06;81.84
9474;BME280;8865;47.636;7.692;2023-04-06T20:59:09;98380.69;;;11.10;72.75
9474;BME280;8865;47.636;7.692;2023-04-06T21:01:35;98380.28;;;11.04;72.35
9474;BME280;8865;47.636;7.692;2023-04-06T21:04:01;98381.25;;;11.13;78.29